createdAt,value
2016-10-17T00:00:04.735Z,82.77
2016-10-17T00:01:18.361Z,82.38
2016-10-17T00:02:31.950Z,83.25
2016-10-17T00:03:45.551Z,82.87
2016-10-17T00:04:59.208Z,82.77
2016-10-17T00:06:12.296Z,83.35
2016-10-17T00:07:25.961Z,84.32
2016-10-17T00:08:39.611Z,84.03
2016-10-17T00:09:53.293Z,84.22
2016-10-17T00:11:06.954Z,84.91
2016-10-17T00:12:20.593Z,84.91
2016-10-17T00:13:34.193Z,84.19
2016-10-17T00:14:48.131Z,84.38
2016-10-17T00:16:01.776Z,84.71
2016-10-17T00:17:15.444Z,84.96
2016-10-17T00:18:29.065Z,85.54
2016-10-17T00:19:42.700Z,86.22
2016-10-17T00:20:56.373Z,87.09
2016-10-17T00:22:09.735Z,87.29
2016-10-17T00:23:23.337Z,86.61
2016-10-17T00:24:36.472Z,86.61
2016-10-17T00:25:50.149Z,86.99
2016-10-17T00:27:03.919Z,86.9
2016-10-17T00:28:17.589Z,87.29
2016-10-17T00:29:31.188Z,87.19
2016-10-17T00:30:45.052Z,87.09
2016-10-17T00:31:58.662Z,87.09
2016-10-17T00:33:11.726Z,86.8
2016-10-17T00:34:25.589Z,86.32
2016-10-17T00:35:39.267Z,86.71
2016-10-17T00:36:52.965Z,86.8
2016-10-17T00:38:06.625Z,86.61
2016-10-17T00:39:20.324Z,86.12
2016-10-17T00:40:34.032Z,87.48
2016-10-17T00:41:47.678Z,86.99
2016-10-17T00:43:00.533Z,87.96
2016-10-17T00:44:14.192Z,86.71
2016-10-17T00:45:27.792Z,87.19
2016-10-17T00:46:41.433Z,86.71
2016-10-17T00:47:55.070Z,87.05
2016-10-17T00:49:08.730Z,87.54
2016-10-17T00:50:22.478Z,87.82
2016-10-17T00:51:36.098Z,88.79
2016-10-17T00:52:49.682Z,88.12
2016-10-17T00:54:02.737Z,88.41
2016-10-17T00:55:16.366Z,87.54
2016-10-17T00:56:29.946Z,87.05
2016-10-17T00:57:43.556Z,87.05
2016-10-17T00:58:57.146Z,87.15
2016-10-17T01:00:10.713Z,88.12
2016-10-17T01:01:24.357Z,89.09
2016-10-17T01:02:38.013Z,88.51
2016-10-17T01:03:51.724Z,87.82
2016-10-17T01:05:05.420Z,87.34
2016-10-17T01:06:19.312Z,88.02
2016-10-17T01:07:32.956Z,88.21
2016-10-17T01:08:46.619Z,88.31
2016-10-17T01:10:00.334Z,88.37
2016-10-17T01:11:14.011Z,88.46
2016-10-17T01:12:27.318Z,89.04
2016-10-17T01:13:40.965Z,89.92
2016-10-17T01:14:54.653Z,89.82
2016-10-17T01:16:08.297Z,89.53
2016-10-17T01:17:21.362Z,89.53
2016-10-17T01:18:34.948Z,89.62
2016-10-17T01:19:48.624Z,88.85
2016-10-17T01:21:01.730Z,88.56
2016-10-17T01:22:15.343Z,88.65
2016-10-17T01:23:29.208Z,88.46
2016-10-17T01:24:42.857Z,88.95
2016-10-17T01:25:56.774Z,89.28
2016-10-17T01:27:10.658Z,88.85
2016-10-17T01:28:24.369Z,89.09
2016-10-17T01:29:37.802Z,89.14
2016-10-17T01:30:51.014Z,89.92
2016-10-17T01:32:04.123Z,90.01
2016-10-17T01:33:17.968Z,90.11
2016-10-17T01:34:31.655Z,90.3
2016-10-17T01:35:45.241Z,91.08
2016-10-17T01:36:58.897Z,90.88
2016-10-17T01:38:12.554Z,90.78
2016-10-17T01:39:40.289Z,90.4
2016-10-17T01:40:53.926Z,89.92
2016-10-17T01:42:07.516Z,90.55
2016-10-17T01:43:20.616Z,91.22
2016-10-17T01:44:34.213Z,90.84
2016-10-17T01:45:48.033Z,91.22
2016-10-17T01:47:01.660Z,91.42
2016-10-17T01:48:15.443Z,90.36
2016-10-17T01:49:28.692Z,90.16
2016-10-17T01:50:42.330Z,89.97
2016-10-17T01:51:55.958Z,90.74
2016-10-17T01:53:09.572Z,90.94
2016-10-17T01:54:22.678Z,91.03
2016-10-17T01:55:36.308Z,91.22
2016-10-17T01:56:50.024Z,90.84
2016-10-17T01:58:03.677Z,91.03
2016-10-17T01:59:17.572Z,91.22
2016-10-17T02:00:31.213Z,91.32
2016-10-17T02:01:45.015Z,91.81
2016-10-17T02:02:58.701Z,91.71
2016-10-17T02:04:12.294Z,91.42
2016-10-17T02:05:25.971Z,91.9
2016-10-17T02:06:39.635Z,92.1
2016-10-17T02:07:53.301Z,91.81
2016-10-17T02:09:06.943Z,92.1
2016-10-17T02:10:20.483Z,92.68
2016-10-17T02:11:34.035Z,93.21
2016-10-17T02:12:47.632Z,93.41
2016-10-17T02:14:01.292Z,92.73
2016-10-17T02:15:14.369Z,92.63
2016-10-17T02:16:28.011Z,91.96
2016-10-17T02:17:41.672Z,92.05
2016-10-17T02:18:55.539Z,92.15
2016-10-17T02:20:08.948Z,92.24
2016-10-17T02:21:22.607Z,92.05
2016-10-17T02:22:36.248Z,92.44
2016-10-17T02:23:49.895Z,92.63
2016-10-17T02:25:03.250Z,92.44
2016-10-17T02:26:17.107Z,93.02
2016-10-17T02:27:30.813Z,92.93
2016-10-17T02:28:45.039Z,93.12
2016-10-17T02:29:58.657Z,93.12
2016-10-17T02:31:12.326Z,92.93
2016-10-17T02:32:25.968Z,93.31
2016-10-17T02:33:39.680Z,93.41
2016-10-17T02:34:53.376Z,93.51
2016-10-17T02:36:05.955Z,93.7
2016-10-17T02:37:19.619Z,93.41
2016-10-17T02:38:33.247Z,93.51
2016-10-17T02:39:46.886Z,93.41
2016-10-17T02:41:00.525Z,93.7
2016-10-17T02:42:14.195Z,93.6
2016-10-17T02:43:27.887Z,93.89
2016-10-17T02:44:41.572Z,93.7
2016-10-17T02:45:55.498Z,94.37
2016-10-17T02:47:09.041Z,94.57
2016-10-17T02:48:22.647Z,94.18
2016-10-17T02:49:36.287Z,94.09
2016-10-17T02:50:49.444Z,94.67
2016-10-17T02:52:03.115Z,94.67
2016-10-17T02:53:16.728Z,94.47
2016-10-17T02:54:30.401Z,93.6
2016-10-17T02:55:44.051Z,93.75
2016-10-17T02:56:57.735Z,93.89
2016-10-17T02:58:10.908Z,93.94
2016-10-17T02:59:24.233Z,94.81
2016-10-17T03:00:37.590Z,94.33
2016-10-17T03:01:50.666Z,94.23
2016-10-17T03:03:04.274Z,94.47
2016-10-17T03:04:18.064Z,94.71
2016-10-17T03:05:31.685Z,94.52
2016-10-17T03:06:45.378Z,94.23
2016-10-17T03:07:59.038Z,94.91
2016-10-17T03:09:13.101Z,94.71
2016-10-17T03:10:26.785Z,95.01
2016-10-17T03:11:39.890Z,95.1
2016-10-17T03:12:53.508Z,95.1
2016-10-17T03:14:07.121Z,95.39
2016-10-17T03:15:20.819Z,95.78
2016-10-17T03:16:34.409Z,96.55
2016-10-17T03:17:48.118Z,96.46
2016-10-17T03:19:01.245Z,96.26
2016-10-17T03:20:15.070Z,96.65
2016-10-17T03:21:28.751Z,96.6
2016-10-17T03:22:42.380Z,96.51
2016-10-17T03:23:55.980Z,96.55
2016-10-17T03:25:09.570Z,96.7
2016-10-17T03:26:23.243Z,96.7
2016-10-17T03:27:36.861Z,96.7
2016-10-17T03:28:50.468Z,96.65
2016-10-17T03:30:04.152Z,96.65
2016-10-17T03:31:17.739Z,96.55
2016-10-17T03:32:31.361Z,96.65
2016-10-17T03:33:44.722Z,96.55
2016-10-17T03:34:58.647Z,96.6
2016-10-17T03:36:12.269Z,97.04
2016-10-17T03:37:25.876Z,96.55
2016-10-17T03:38:39.444Z,96.89
2016-10-17T03:39:53.090Z,96.8
2016-10-17T03:41:06.707Z,96.99
2016-10-17T03:42:19.831Z,97.09
2016-10-17T03:43:33.522Z,96.7
2016-10-17T03:44:46.669Z,97.23
2016-10-17T03:45:59.796Z,96.99
2016-10-17T03:47:13.463Z,97.09
2016-10-17T03:48:27.057Z,97.18
2016-10-17T03:49:40.690Z,97.67
2016-10-17T03:50:53.847Z,97.47
2016-10-17T03:52:07.500Z,97.57
2016-10-17T03:53:21.251Z,97.67
2016-10-17T03:54:34.316Z,97.86
2016-10-17T03:55:47.429Z,97.77
2016-10-17T03:57:01.084Z,97.67
2016-10-17T03:58:14.703Z,97.86
2016-10-17T03:59:28.341Z,98.25
2016-10-17T04:00:42.015Z,98.15
2016-10-17T04:01:55.655Z,97.96
2016-10-17T04:03:08.965Z,98.15
2016-10-17T04:04:22.595Z,98.54
2016-10-17T04:05:36.188Z,98.58
2016-10-17T04:06:49.414Z,98.63
2016-10-17T04:08:02.539Z,98.2
2016-10-17T04:09:16.162Z,98.1
2016-10-17T04:10:29.748Z,98
2016-10-17T04:11:43.619Z,97.91
2016-10-17T04:12:56.784Z,98
2016-10-17T04:14:09.863Z,98.1
2016-10-17T04:15:23.523Z,98.3
2016-10-17T04:16:37.201Z,98.3
2016-10-17T04:17:50.791Z,98.39
2016-10-17T04:19:04.476Z,98.68
2016-10-17T04:20:18.223Z,98.68
2016-10-17T04:21:31.907Z,98.88
2016-10-17T04:22:45.073Z,98.68
2016-10-17T04:23:58.644Z,99.26
2016-10-17T04:25:12.294Z,98.97
2016-10-17T04:26:25.922Z,99.16
2016-10-17T04:27:39.538Z,99.16
2016-10-17T04:28:52.686Z,98.49
2016-10-17T04:30:06.349Z,98.88
2016-10-17T04:31:19.988Z,98.58
2016-10-17T04:32:33.625Z,98.58
2016-10-17T04:33:47.456Z,98.68
2016-10-17T04:35:01.034Z,98.88
2016-10-17T04:36:14.670Z,99.16
2016-10-17T04:37:28.364Z,99.07
2016-10-17T04:38:41.939Z,99.84
2016-10-17T04:39:55.082Z,99.84
2016-10-17T04:41:08.200Z,99.99
2016-10-17T04:42:21.822Z,99.99
2016-10-17T04:43:35.506Z,99.74
2016-10-17T04:44:49.322Z,99.84
2016-10-17T04:46:02.998Z,99.65
2016-10-17T04:47:16.667Z,99.65
2016-10-17T04:48:30.299Z,99.36
2016-10-17T04:49:43.925Z,98.78
2016-10-17T04:50:56.528Z,98.1
2016-10-17T04:52:10.141Z,98.39
2016-10-17T04:53:23.751Z,98.78
2016-10-17T04:54:36.898Z,99.36
2016-10-17T04:55:50.732Z,98.39
2016-10-17T04:57:04.339Z,98.49
2016-10-17T04:58:18.159Z,98.39
2016-10-17T04:59:31.782Z,98
2016-10-17T05:00:45.373Z,98
2016-10-17T05:01:58.999Z,98.3
2016-10-17T05:03:12.589Z,98.78
2016-10-17T05:04:26.212Z,98.58
2016-10-17T05:05:39.861Z,98.58
2016-10-17T05:06:53.478Z,98.88
2016-10-17T05:08:06.871Z,98.68
2016-10-17T05:09:20.510Z,98.39
2016-10-17T05:10:34.169Z,98.58
2016-10-17T05:11:47.247Z,98.49
2016-10-17T05:13:00.941Z,97.91
2016-10-17T05:14:14.670Z,98.49
2016-10-17T05:15:28.391Z,98.68
2016-10-17T05:16:42.004Z,98.58
2016-10-17T05:17:55.563Z,98.49
2016-10-17T05:19:09.136Z,98.58
2016-10-17T05:20:22.490Z,98.58
2016-10-17T05:21:36.097Z,98.39
2016-10-17T05:22:49.451Z,98
2016-10-17T05:24:03.086Z,98.49
2016-10-17T05:25:16.701Z,98.2
2016-10-17T05:26:30.308Z,98.49
2016-10-17T05:27:43.907Z,98.58
2016-10-17T05:28:57.582Z,98.49
2016-10-17T05:30:11.248Z,98.58
2016-10-17T05:31:24.873Z,98.88
2016-10-17T05:32:38.738Z,98.68
2016-10-17T05:33:52.491Z,98.68
2016-10-17T05:35:06.051Z,98.39
2016-10-17T05:36:19.808Z,98.78
2016-10-17T05:37:33.402Z,98.88
2016-10-17T05:38:46.528Z,98.78
2016-10-17T05:40:00.177Z,99.26
2016-10-17T05:41:13.353Z,99.16
2016-10-17T05:42:26.955Z,99.02
2016-10-17T05:43:40.644Z,99.6
2016-10-17T05:44:54.283Z,99.99
2016-10-17T05:46:07.358Z,99.6
2016-10-17T05:47:19.838Z,99.99
2016-10-17T05:48:32.867Z,99.99
2016-10-17T05:49:46.483Z,99.99
2016-10-17T05:51:00.134Z,99.99
2016-10-17T05:52:13.239Z,99.99
2016-10-17T05:53:26.418Z,99.99
2016-10-17T05:54:40.064Z,99.99
2016-10-17T05:55:53.718Z,99.99
2016-10-17T05:57:07.404Z,99.99
2016-10-17T05:58:20.494Z,99.99
2016-10-17T05:59:34.101Z,99.99
2016-10-17T06:00:48.173Z,99.99
2016-10-17T06:02:00.976Z,99.99
2016-10-17T06:03:13.520Z,99.99
2016-10-17T06:04:27.115Z,99.99
2016-10-17T06:05:40.180Z,99.99
2016-10-17T06:06:53.276Z,99.99
2016-10-17T06:08:05.885Z,99.99
2016-10-17T06:09:19.522Z,99.99
2016-10-17T06:10:31.521Z,99.99
2016-10-17T06:11:44.154Z,99.99
2016-10-17T06:12:57.233Z,99.99
2016-10-17T06:14:10.859Z,99.99
2016-10-17T06:15:24.483Z,99.99
2016-10-17T06:16:37.564Z,99.99
2016-10-17T06:17:51.310Z,99.99
2016-10-17T06:19:05.007Z,99.99
2016-10-17T06:20:18.647Z,99.99
2016-10-17T06:21:32.239Z,99.99
2016-10-17T06:22:45.805Z,99.99
2016-10-17T06:23:59.386Z,99.99
2016-10-17T06:25:13.006Z,99.99
2016-10-17T06:26:26.771Z,99.99
2016-10-17T06:27:40.399Z,99.99
2016-10-17T06:28:54.021Z,99.99
2016-10-17T06:30:07.586Z,99.99
2016-10-17T06:31:21.322Z,99.99
2016-10-17T06:32:34.901Z,99.99
2016-10-17T06:33:48.548Z,99.99
2016-10-17T06:35:02.199Z,99.99
2016-10-17T06:36:15.898Z,99.99
2016-10-17T06:37:29.604Z,99.99
2016-10-17T06:38:43.325Z,99.99
2016-10-17T06:39:56.435Z,99.99
2016-10-17T06:41:10.076Z,99.99
2016-10-17T06:42:23.742Z,99.99
2016-10-17T06:43:37.271Z,99.99
2016-10-17T06:44:50.912Z,99.99
2016-10-17T06:46:04.567Z,99.99
2016-10-17T06:47:18.241Z,99.99
2016-10-17T06:48:31.879Z,99.99
2016-10-17T06:49:45.554Z,99.99
2016-10-17T06:50:59.254Z,99.99
2016-10-17T06:52:12.941Z,99.99
2016-10-17T06:53:26.049Z,99.99
2016-10-17T06:54:39.690Z,99.99
2016-10-17T06:55:53.346Z,99.99
2016-10-17T06:57:06.392Z,99.99
2016-10-17T06:58:19.980Z,99.99
2016-10-17T06:59:33.622Z,99.99
2016-10-17T07:00:47.291Z,99.99
2016-10-17T07:02:00.974Z,99.99
2016-10-17T07:03:14.661Z,99.99
2016-10-17T07:04:28.314Z,99.99
2016-10-17T07:05:42.031Z,99.99
2016-10-17T07:06:55.651Z,99.99
2016-10-17T07:08:09.282Z,99.99
2016-10-17T07:09:23.167Z,99.99
2016-10-17T07:10:36.854Z,99.99
2016-10-17T07:11:50.303Z,99.99
2016-10-17T07:13:03.897Z,99.99
2016-10-17T07:14:17.361Z,99.99
2016-10-17T07:15:30.812Z,99.99
2016-10-17T07:16:44.116Z,99.99
2016-10-17T07:17:57.743Z,99.99
2016-10-17T07:19:11.358Z,99.99
2016-10-17T07:20:25.030Z,99.99
2016-10-17T07:21:38.634Z,99.99
2016-10-17T07:22:52.493Z,99.99
2016-10-17T07:24:06.129Z,99.99
2016-10-17T07:25:19.503Z,99.99
2016-10-17T07:26:32.369Z,99.99
2016-10-17T07:27:45.985Z,99.99
2016-10-17T07:28:59.617Z,99.99
2016-10-17T07:30:12.960Z,99.99
2016-10-17T07:31:26.521Z,99.99
2016-10-17T07:32:39.583Z,99.99
2016-10-17T07:33:52.399Z,99.99
2016-10-17T07:35:06.023Z,99.99
2016-10-17T07:36:19.646Z,99.99
2016-10-17T07:37:33.242Z,99.99
2016-10-17T07:38:46.875Z,99.99
2016-10-17T07:40:00.502Z,99.99
2016-10-17T07:41:13.608Z,99.99
2016-10-17T07:42:27.189Z,99.99
2016-10-17T07:43:40.897Z,99.99
2016-10-17T07:44:54.545Z,99.99
2016-10-17T07:46:08.226Z,99.99
2016-10-17T07:47:21.895Z,99.99
2016-10-17T07:48:35.527Z,99.99
2016-10-17T07:49:48.623Z,99.99
2016-10-17T07:51:02.330Z,99.99
2016-10-17T07:52:15.712Z,99.99
2016-10-17T07:53:29.316Z,99.99
2016-10-17T07:54:42.469Z,99.99
2016-10-17T07:55:56.060Z,99.99
2016-10-17T07:57:09.181Z,99.99
2016-10-17T07:58:22.735Z,99.99
2016-10-17T08:00:46.088Z,99.99
2016-10-17T08:01:59.640Z,99.99
2016-10-17T08:03:13.330Z,99.99
2016-10-17T08:04:26.960Z,99.99
2016-10-17T08:05:40.583Z,99.99
2016-10-17T08:06:53.602Z,99.99
2016-10-17T08:08:07.209Z,99.99
2016-10-17T08:09:20.818Z,99.99
2016-10-17T08:10:33.998Z,99.99
2016-10-17T08:11:47.631Z,99.99
2016-10-17T08:13:01.292Z,99.99
2016-10-17T08:14:14.931Z,99.99
2016-10-17T08:15:28.881Z,99.99
2016-10-17T08:16:42.560Z,99.99
2016-10-17T08:17:55.959Z,99.99
2016-10-17T08:19:09.615Z,99.99
2016-10-17T08:20:23.177Z,99.99
2016-10-17T08:21:37.120Z,99.99
2016-10-17T08:22:50.800Z,99.99
2016-10-17T08:24:04.120Z,99.99
2016-10-17T08:25:17.701Z,99.99
2016-10-17T08:26:31.376Z,99.99
2016-10-17T08:27:45.015Z,99.99
2016-10-17T08:28:58.821Z,99.99
2016-10-17T08:30:11.900Z,99.99
2016-10-17T08:31:25.655Z,99.99
2016-10-17T08:32:38.815Z,99.99
2016-10-17T08:33:52.631Z,99.99
2016-10-17T08:35:06.265Z,99.99
2016-10-17T08:36:19.869Z,99.99
2016-10-17T08:37:33.608Z,99.99
2016-10-17T08:38:46.449Z,99.99
2016-10-17T08:40:00.113Z,99.99
2016-10-17T08:41:13.747Z,99.99
2016-10-17T08:42:27.350Z,99.99
2016-10-17T08:43:40.959Z,99.99
2016-10-17T08:44:54.576Z,99.99
2016-10-17T08:46:08.146Z,99.99
2016-10-17T08:47:21.763Z,99.99
2016-10-17T08:48:34.568Z,99.99
2016-10-17T08:49:48.430Z,99.99
2016-10-17T08:51:02.074Z,99.99
2016-10-17T08:52:15.660Z,99.99
2016-10-17T08:53:29.290Z,99.99
2016-10-17T08:54:42.925Z,99.99
2016-10-17T08:55:56.303Z,99.99
2016-10-17T08:57:09.900Z,99.99
2016-10-17T08:58:23.623Z,99.99
2016-10-17T08:59:37.288Z,99.99
2016-10-17T09:00:50.421Z,99.99
2016-10-17T09:02:04.016Z,99.99
2016-10-17T09:03:17.683Z,99.99
2016-10-17T09:04:30.813Z,99.99
2016-10-17T09:05:44.422Z,99.99
2016-10-17T09:06:58.068Z,99.99
2016-10-17T09:08:11.644Z,99.99
2016-10-17T09:09:25.281Z,99.99
2016-10-17T09:10:38.952Z,99.99
2016-10-17T09:11:52.723Z,99.99
2016-10-17T09:13:06.431Z,99.99
2016-10-17T09:14:20.130Z,99.99
2016-10-17T09:15:32.969Z,99.99
2016-10-17T09:16:46.610Z,99.99
2016-10-17T09:18:00.284Z,99.99
2016-10-17T09:19:13.577Z,99.99
2016-10-17T09:20:26.106Z,99.99
2016-10-17T09:21:39.512Z,99.99
2016-10-17T09:22:53.091Z,99.99
2016-10-17T09:24:06.791Z,99.99
2016-10-17T09:25:20.477Z,99.99
2016-10-17T09:26:33.531Z,99.99
2016-10-17T09:27:47.253Z,99.99
2016-10-17T09:29:00.945Z,99.99
2016-10-17T09:30:14.591Z,99.99
2016-10-17T09:31:28.196Z,99.99
2016-10-17T09:32:41.816Z,99.99
2016-10-17T09:33:55.336Z,99.99
2016-10-17T09:35:08.964Z,99.99
2016-10-17T09:36:22.033Z,99.99
2016-10-17T09:37:35.720Z,99.99
2016-10-17T09:38:49.349Z,99.99
2016-10-17T09:40:03.002Z,99.99
2016-10-17T09:41:16.059Z,99.99
2016-10-17T09:42:29.458Z,99.99
2016-10-17T09:43:43.098Z,99.99
2016-10-17T09:44:56.178Z,99.99
2016-10-17T09:46:09.561Z,99.99
2016-10-17T09:47:22.734Z,99.99
2016-10-17T09:48:36.367Z,99.99
2016-10-17T09:49:49.957Z,99.99
2016-10-17T09:51:03.066Z,99.99
2016-10-17T09:52:16.766Z,99.99
2016-10-17T09:53:30.395Z,99.99
2016-10-17T09:54:44.054Z,99.99
2016-10-17T09:55:57.625Z,99.99
2016-10-17T09:57:11.294Z,99.99
2016-10-17T09:58:24.362Z,99.99
2016-10-17T09:59:37.665Z,99.99
2016-10-17T10:00:51.580Z,99.99
2016-10-17T10:02:04.629Z,99.99
2016-10-17T10:03:18.418Z,99.99
2016-10-17T10:04:32.015Z,99.99
2016-10-17T10:05:45.667Z,99.99
2016-10-17T10:06:59.362Z,99.99
2016-10-17T10:08:12.501Z,99.99
2016-10-17T10:09:25.629Z,99.99
2016-10-17T10:10:39.316Z,99.99
2016-10-17T10:11:53.010Z,99.99
2016-10-17T10:13:06.687Z,99.99
2016-10-17T10:14:20.344Z,99.99
2016-10-17T10:15:33.710Z,99.6
2016-10-17T10:16:47.347Z,99.99
2016-10-17T10:18:00.684Z,99.69
2016-10-17T10:19:14.325Z,98.93
2016-10-17T10:20:28.019Z,98.44
2016-10-17T10:21:41.697Z,98.83
2016-10-17T10:22:55.372Z,99.02
2016-10-17T10:24:08.485Z,98.83
2016-10-17T10:25:21.599Z,98.78
2016-10-17T10:26:35.211Z,98.58
2016-10-17T10:27:48.796Z,98.2
2016-10-17T10:29:01.925Z,98
2016-10-17T10:30:14.971Z,97.62
2016-10-17T10:31:28.054Z,97.62
2016-10-17T10:32:41.785Z,97.23
2016-10-17T10:33:54.363Z,97.33
2016-10-17T10:35:07.982Z,97.91
2016-10-17T10:36:21.118Z,98
2016-10-17T10:37:34.709Z,98.1
2016-10-17T10:38:48.485Z,98.68
2016-10-17T10:40:01.299Z,98.35
2016-10-17T10:41:14.394Z,97.81
2016-10-17T10:42:28.014Z,98.2
2016-10-17T10:43:41.603Z,98
2016-10-17T10:44:55.254Z,97.91
2016-10-17T10:46:08.364Z,97.23
2016-10-17T10:47:21.931Z,97.42
2016-10-17T10:48:35.597Z,99.84
2016-10-17T10:49:49.430Z,99.99
2016-10-17T10:51:03.003Z,99.89
2016-10-17T10:52:16.650Z,98.93
2016-10-17T10:53:30.297Z,98.83
2016-10-17T10:54:43.389Z,99.21
2016-10-17T10:55:57.103Z,98.73
2016-10-17T10:57:10.762Z,97.91
2016-10-17T10:58:24.404Z,97.91
2016-10-17T10:59:37.462Z,98.1
2016-10-17T11:00:51.129Z,98.58
2016-10-17T11:02:04.206Z,99.21
2016-10-17T11:03:17.850Z,99.21
2016-10-17T11:04:31.515Z,98.54
2016-10-17T11:05:45.399Z,98.73
2016-10-17T11:06:59.035Z,98.58
2016-10-17T11:08:12.140Z,97.91
2016-10-17T11:09:25.336Z,98.3
2016-10-17T11:10:38.926Z,97.81
2016-10-17T11:11:52.732Z,97.33
2016-10-17T11:13:05.357Z,97.38
2016-10-17T11:14:19.054Z,96.7
2016-10-17T11:15:32.436Z,97.09
2016-10-17T11:16:45.005Z,96.17
2016-10-17T11:17:58.655Z,96.22
2016-10-17T11:19:12.255Z,97.38
2016-10-17T11:20:25.987Z,98.39
2016-10-17T11:21:39.620Z,99.26
2016-10-17T11:22:52.858Z,98.63
2016-10-17T11:24:06.487Z,98.49
2016-10-17T11:25:20.173Z,98.58
2016-10-17T11:26:33.232Z,98.39
2016-10-17T11:27:46.895Z,98.25
2016-10-17T11:29:00.492Z,97.86
2016-10-17T11:30:14.105Z,97.86
2016-10-17T11:31:27.194Z,97.28
2016-10-17T11:32:40.771Z,97.38
2016-10-17T11:33:53.884Z,97.38
2016-10-17T11:35:07.500Z,97.47
2016-10-17T11:36:20.565Z,96.51
2016-10-17T11:37:32.846Z,96.41
2016-10-17T11:38:45.923Z,96.07
2016-10-17T11:39:59.561Z,95.93
2016-10-17T11:41:13.152Z,96.51
2016-10-17T11:42:26.303Z,95.83
2016-10-17T11:43:39.703Z,95.49
2016-10-17T11:44:53.106Z,95.87
2016-10-17T11:46:06.745Z,95.78
2016-10-17T11:47:20.396Z,95.68
2016-10-17T11:48:33.681Z,95.49
2016-10-17T11:49:47.292Z,95.83
2016-10-17T11:51:00.881Z,96.22
2016-10-17T11:52:13.673Z,95.39
2016-10-17T11:53:27.564Z,94.71
2016-10-17T11:54:40.126Z,94.76
2016-10-17T11:55:53.822Z,94.18
2016-10-17T11:57:07.478Z,94.57
2016-10-17T11:58:21.094Z,93.07
2016-10-17T11:59:34.670Z,93.74
2016-10-17T12:00:46.693Z,92.49
2016-10-17T12:01:59.833Z,92.1
2016-10-17T12:03:12.882Z,92.72
2016-10-17T12:04:25.425Z,91.9
2016-10-17T12:05:38.475Z,91.75
2016-10-17T12:06:51.574Z,91.75
2016-10-17T12:08:05.194Z,91.27
2016-10-17T12:09:18.876Z,91.41
2016-10-17T12:10:32.544Z,91.51
2016-10-17T12:11:45.735Z,90.16
2016-10-17T12:12:59.375Z,90.54
2016-10-17T12:14:12.502Z,89.37
2016-10-17T12:15:26.144Z,89.86
2016-10-17T12:16:39.800Z,89.96
2016-10-17T12:17:53.439Z,89.67
2016-10-17T12:19:07.132Z,88.93
2016-10-17T12:20:21.076Z,88.74
2016-10-17T12:21:34.508Z,89.13
2016-10-17T12:22:48.131Z,88.93
2016-10-17T12:24:01.785Z,88.26
2016-10-17T12:25:14.862Z,88.1
2016-10-17T12:26:28.532Z,87.43
2016-10-17T12:27:42.212Z,87.62
2016-10-17T12:28:55.465Z,86.6
2016-10-17T12:30:09.150Z,86.5
2016-10-17T12:31:22.897Z,85.96
2016-10-17T12:32:36.601Z,85.96
2016-10-17T12:33:49.671Z,85.13
2016-10-17T12:35:03.268Z,85.03
2016-10-17T12:36:16.893Z,83.96
2016-10-17T12:37:30.565Z,84.11
2016-10-17T12:38:43.649Z,84.35
2016-10-17T12:39:57.276Z,84.35
2016-10-17T12:41:10.875Z,84.06
2016-10-17T12:42:24.477Z,83.28
2016-10-17T12:43:38.158Z,84
2016-10-17T12:44:51.811Z,82.54
2016-10-17T12:46:05.470Z,82.15
2016-10-17T12:47:19.054Z,82.74
2016-10-17T12:48:32.209Z,81.41
2016-10-17T12:49:45.888Z,81.51
2016-10-17T12:50:59.570Z,81.12
2016-10-17T12:52:13.451Z,81.12
2016-10-17T12:53:27.160Z,81.61
2016-10-17T12:54:40.813Z,80.83
2016-10-17T12:55:53.493Z,80.74
2016-10-17T12:57:07.096Z,80.77
2016-10-17T12:58:20.733Z,80.09
2016-10-17T12:59:33.826Z,79.51
2016-10-17T13:00:47.490Z,79.22
2016-10-17T13:02:01.119Z,79.41
2016-10-17T13:03:14.179Z,79.06
2016-10-17T13:04:27.363Z,78.87
2016-10-17T13:05:40.542Z,79.12
2016-10-17T13:06:54.123Z,78.96
2016-10-17T13:08:07.789Z,77.93
2016-10-17T13:09:20.357Z,76.86
2016-10-17T13:10:33.987Z,77
2016-10-17T13:11:47.638Z,77.09
2016-10-17T13:13:01.229Z,76.8
2016-10-17T13:14:14.413Z,76.31
2016-10-17T13:15:26.963Z,76.84
2016-10-17T13:16:39.497Z,76.45
2016-10-17T13:17:52.588Z,75.96
2016-10-17T13:19:05.594Z,74.93
2016-10-17T13:20:19.235Z,75.02
2016-10-17T13:21:32.886Z,74.44
2016-10-17T13:22:46.581Z,73.66
2016-10-17T13:24:00.461Z,73.4
2016-10-17T13:25:14.095Z,73.5
2016-10-17T13:26:27.765Z,72.91
2016-10-17T13:27:41.411Z,72.72
2016-10-17T13:28:55.038Z,72.91
2016-10-17T13:30:08.106Z,72.03
2016-10-17T13:31:21.232Z,71.78
2016-10-17T13:32:34.369Z,71.32
2016-10-17T13:33:48.068Z,70.93
2016-10-17T13:35:01.150Z,70.73
2016-10-17T13:36:14.835Z,71.16
2016-10-17T13:37:28.481Z,70.67
2016-10-17T13:38:42.078Z,69.79
2016-10-17T13:39:55.163Z,69.04
2016-10-17T13:41:08.838Z,68.19
2016-10-17T13:42:22.511Z,68.39
2016-10-17T13:43:36.145Z,67.61
2016-10-17T13:44:49.802Z,66.37
2016-10-17T13:46:02.849Z,66.66
2016-10-17T13:47:15.513Z,65.62
2016-10-17T13:48:29.224Z,64.87
2016-10-17T13:49:42.899Z,63.95
2016-10-17T13:50:56.027Z,63
2016-10-17T13:52:09.639Z,62.24
2016-10-17T13:53:23.270Z,62.81
2016-10-17T13:54:36.409Z,62.7
2016-10-17T13:55:49.546Z,61.85
2016-10-17T13:57:02.644Z,61.39
2016-10-17T13:58:16.279Z,59.48
2016-10-17T13:59:29.869Z,58.99
2016-10-17T14:00:42.973Z,58.89
2016-10-17T14:01:56.703Z,57.48
2016-10-17T14:03:09.254Z,56.49
2016-10-17T14:04:22.931Z,56.71
2016-10-17T14:05:36.678Z,56.42
2016-10-17T14:06:49.779Z,57.21
2016-10-17T14:08:02.953Z,56.91
2016-10-17T14:09:15.623Z,56.15
2016-10-17T14:10:29.192Z,55.49
2016-10-17T14:11:42.183Z,54.63
2016-10-17T14:12:55.475Z,53.96
2016-10-17T14:14:09.085Z,54.23
2016-10-17T14:15:22.869Z,54.93
2016-10-17T14:16:36.221Z,54.5
2016-10-17T14:17:49.888Z,54.23
2016-10-17T14:19:03.484Z,53.1
2016-10-17T14:20:17.200Z,52.93
2016-10-17T14:21:30.920Z,53.79
2016-10-17T14:22:44.640Z,52.58
2016-10-17T14:23:58.309Z,52.73
2016-10-17T14:25:11.907Z,52.61
2016-10-17T14:26:25.053Z,52.01
2016-10-17T14:27:38.823Z,53.08
2016-10-17T14:28:52.541Z,53.25
2016-10-17T14:30:05.716Z,53.05
2016-10-17T14:31:18.844Z,53.05
2016-10-17T14:32:31.950Z,52.26
2016-10-17T14:33:45.059Z,52.04
2016-10-17T14:34:58.640Z,52.16
2016-10-17T14:36:12.353Z,51.79
2016-10-17T14:37:25.985Z,51.79
2016-10-17T14:38:38.754Z,51.97
2016-10-17T14:39:52.368Z,51.4
2016-10-17T14:41:05.498Z,51.13
2016-10-17T14:42:19.169Z,50.56
2016-10-17T14:43:31.786Z,49.69
2016-10-17T14:44:44.921Z,50.66
2016-10-17T14:45:58.054Z,50.63
2016-10-17T14:47:11.723Z,49.74
2016-10-17T14:48:24.932Z,49.89
2016-10-17T14:49:37.518Z,50.24
2016-10-17T14:50:51.218Z,49.77
2016-10-17T14:52:04.927Z,49.3
2016-10-17T14:53:18.099Z,49.67
2016-10-17T14:54:30.639Z,49.18
2016-10-17T14:55:44.333Z,47.84
2016-10-17T14:56:57.974Z,47.89
2016-10-17T14:58:11.637Z,47.12
2016-10-17T14:59:25.241Z,46.35
2016-10-17T15:00:38.615Z,45.2
2016-10-17T15:01:52.482Z,44.23
2016-10-17T15:03:05.570Z,44.25
2016-10-17T15:04:18.657Z,45.3
2016-10-17T15:05:32.250Z,45.36
2016-10-17T15:06:45.511Z,45.75
2016-10-17T15:07:58.656Z,46.7
2016-10-17T15:09:11.737Z,46.3
2016-10-17T15:10:25.404Z,45.71
2016-10-17T15:11:38.556Z,45.53
2016-10-17T15:12:52.144Z,45.34
2016-10-17T15:14:05.319Z,45.39
2016-10-17T15:15:18.655Z,45.21
2016-10-17T15:16:32.309Z,44.42
2016-10-17T15:17:45.923Z,45.23
2016-10-17T15:18:58.506Z,45.9
2016-10-17T15:20:12.147Z,45.61
2016-10-17T15:21:25.964Z,45.39
2016-10-17T15:22:39.344Z,44.74
2016-10-17T15:23:52.496Z,44.19
2016-10-17T15:25:06.132Z,43.3
2016-10-17T15:26:18.914Z,44.07
2016-10-17T15:27:31.505Z,45.57
2016-10-17T15:28:44.656Z,41.66
2016-10-17T15:29:58.290Z,41.61
2016-10-17T15:31:11.336Z,41.26
2016-10-17T15:32:25.051Z,40.42
2016-10-17T15:33:38.888Z,40.12
2016-10-17T15:34:52.513Z,41.61
2016-10-17T15:36:05.672Z,40.86
2016-10-17T15:37:19.276Z,40.88
2016-10-17T15:38:53.152Z,41.55
2016-10-17T15:40:06.686Z,41.66
2016-10-17T15:41:20.310Z,41.04
2016-10-17T15:42:33.900Z,40.56
2016-10-17T15:43:46.464Z,39.71
2016-10-17T15:44:59.651Z,38.47
2016-10-17T15:46:13.303Z,37.77
2016-10-17T15:47:26.623Z,37.76
2016-10-17T15:48:40.286Z,38.24
2016-10-17T15:49:53.916Z,38.09
2016-10-17T15:51:07.606Z,37.51